Terminal Aerodrome Forecast
Issued by NWS Sioux Falls, SD

Home | Current Version | Previous Version | Graphics & Text | Print | Product List | Glossary Off
Versions: 1 2 3 4 5 6 7 8 9 10 11 12 13 14 15 16 17 18

000
FTUS43 KFSD 260432 AAB
TAFFSD
TAF AMD
KFSD 260432Z 2605/2624 VRB03KT P6SM BKN022
     FM260600 20004KT P6SM SCT030 BKN100
     FM261200 27008KT P6SM SCT100
     FM261500 31014G20KT P6SM SKC
     FM262200 31008KT P6SM FEW120=

USA.gov is the U.S. government's official web portal to all federal, state and local government web resources and services.